sensor_id;sensor_type;location;lat;lon;timestamp;pressure;altitude;pressure_sealevel;temperature;humidity
69784;BME280;57054;51.978;4.498;2022-10-16T00:01:17;100896.94;;;13.08;91.09
69784;BME280;57054;51.978;4.498;2022-10-16T00:03:44;100890.88;;;13.06;90.93
69784;BME280;57054;51.978;4.498;2022-10-16T00:06:11;100899.56;;;13.08;90.92
69784;BME280;57054;51.978;4.498;2022-10-16T00:08:37;100901.38;;;13.06;91.11
69784;BME280;57054;51.978;4.498;2022-10-16T00:13:32;100900.53;;;13.05;90.98
69784;BME280;57054;51.978;4.498;2022-10-16T00:15:59;100893.44;;;13.07;90.71
69784;BME280;57054;51.978;4.498;2022-10-16T00:18:25;100889.25;;;13.03;89.86
69784;BME280;57054;51.978;4.498;2022-10-16T00:20:51;100905.72;;;13.07;90.19
69784;BME280;57054;51.978;4.498;2022-10-16T00:23:17;100894.50;;;13.03;90.07
69784;BME280;57054;51.978;4.498;2022-10-16T00:25:43;100895.34;;;13.04;89.97
69784;BME280;57054;51.978;4.498;2022-10-16T00:28:08;100895.34;;;13.04;89.95
69784;BME280;57054;51.978;4.498;2022-10-16T00:30:37;100888.41;;;13.03;90.02
69784;BME280;57054;51.978;4.498;2022-10-16T00:33:03;100884.16;;;13.00;90.10
69784;BME280;57054;51.978;4.498;2022-10-16T00:35:28;100889.25;;;13.03;90.38
69784;BME280;57054;51.978;4.498;2022-10-16T00:37:54;100891.88;;;13.03;90.11
69784;BME280;57054;51.978;4.498;2022-10-16T00:40:19;100900.63;;;13.04;90.25
69784;BME280;57054;51.978;4.498;2022-10-16T00:42:45;100878.81;;;13.02;90.38
69784;BME280;57054;51.978;4.498;2022-10-16T00:45:13;100883.16;;;13.03;90.68
69784;BME280;57054;51.978;4.498;2022-10-16T00:48:02;100885.78;;;13.03;90.81
69784;BME280;57054;51.978;4.498;2022-10-16T00:50:30;100881.38;;;13.03;90.82
69784;BME280;57054;51.978;4.498;2022-10-16T00:52:57;100877.06;;;13.02;91.06
69784;BME280;57054;51.978;4.498;2022-10-16T00:55:24;100881.38;;;13.03;91.07
69784;BME280;57054;51.978;4.498;2022-10-16T00:57:51;100882.22;;;13.04;91.01
69784;BME280;57054;51.978;4.498;2022-10-16T01:00:20;100877.06;;;13.02;91.16
69784;BME280;57054;51.978;4.498;2022-10-16T01:02:55;100885.03;;;13.01;91.27
69784;BME280;57054;51.978;4.498;2022-10-16T01:05:23;100898.94;;;13.03;91.64
69784;BME280;57054;51.978;4.498;2022-10-16T01:10:28;100905.09;;;13.02;92.11
69784;BME280;57054;51.978;4.498;2022-10-16T01:13:21;100896.38;;;13.01;92.09
69784;BME280;57054;51.978;4.498;2022-10-16T01:15:56;100893.69;;;13.03;92.06
69784;BME280;57054;51.978;4.498;2022-10-16T01:18:45;100892.91;;;13.01;92.16
69784;BME280;57054;51.978;4.498;2022-10-16T01:32:02;100903.41;;;13.01;92.46
69784;BME280;57054;51.978;4.498;2022-10-16T01:34:46;100906.97;;;13.00;92.64
69784;BME280;57054;51.978;4.498;2022-10-16T01:37:16;100909.66;;;12.98;92.42
69784;BME280;57054;51.978;4.498;2022-10-16T01:39:47;100909.66;;;12.98;92.58
69784;BME280;57054;51.978;4.498;2022-10-16T01:42:19;100911.38;;;12.99;92.71
69784;BME280;57054;51.978;4.498;2022-10-16T01:44:47;100918.44;;;12.99;92.89
69784;BME280;57054;51.978;4.498;2022-10-16T01:47:15;100909.66;;;12.98;92.85
69784;BME280;57054;51.978;4.498;2022-10-16T01:49:42;100914.00;;;12.99;92.77
69784;BME280;57054;51.978;4.498;2022-10-16T01:52:13;100912.22;;;13.00;92.62
69784;BME280;57054;51.978;4.498;2022-10-16T01:54:42;100914.91;;;12.98;92.67
69784;BME280;57054;51.978;4.498;2022-10-16T01:57:08;100921.91;;;12.99;92.82
69784;BME280;57054;51.978;4.498;2022-10-16T01:59:42;100917.56;;;12.98;92.68
69784;BME280;57054;51.978;4.498;2022-10-16T02:02:10;100925.44;;;12.98;92.90
69784;BME280;57054;51.978;4.498;2022-10-16T02:04:40;100921.13;;;12.97;92.75
69784;BME280;57054;51.978;4.498;2022-10-16T02:07:07;100916.72;;;12.98;92.71
69784;BME280;57054;51.978;4.498;2022-10-16T02:09:34;100929.00;;;12.97;92.79
69784;BME280;57054;51.978;4.498;2022-10-16T02:12:08;100927.28;;;12.96;93.12
69784;BME280;57054;51.978;4.498;2022-10-16T02:14:37;100928.13;;;12.97;92.88
69784;BME280;57054;51.978;4.498;2022-10-16T02:17:10;100923.81;;;12.96;93.08
69784;BME280;57054;51.978;4.498;2022-10-16T02:19:36;100933.41;;;12.97;93.13
69784;BME280;57054;51.978;4.498;2022-10-16T02:22:03;100935.19;;;12.96;93.01
69784;BME280;57054;51.978;4.498;2022-10-16T02:24:35;100926.38;;;12.97;92.92
69784;BME280;57054;51.978;4.498;2022-10-16T02:27:13;100922.09;;;12.95;92.96
69784;BME280;57054;51.978;4.498;2022-10-16T02:29:47;100924.72;;;12.95;93.24
69784;BME280;57054;51.978;4.498;2022-10-16T02:32:17;100929.91;;;12.96;93.20
69784;BME280;57054;51.978;4.498;2022-10-16T02:34:45;100931.78;;;12.94;93.28
69784;BME280;57054;51.978;4.498;2022-10-16T02:37:12;100926.44;;;12.96;93.02
69784;BME280;57054;51.978;4.498;2022-10-16T02:39:38;100928.25;;;12.95;93.41
69784;BME280;57054;51.978;4.498;2022-10-16T02:42:10;100931.72;;;12.96;93.20
69784;BME280;57054;51.978;4.498;2022-10-16T02:44:36;100923.81;;;12.96;93.54
69784;BME280;57054;51.978;4.498;2022-10-16T02:47:01;100927.38;;;12.95;93.25
69784;BME280;57054;51.978;4.498;2022-10-16T02:49:27;100923.91;;;12.94;93.14
69784;BME280;57054;51.978;4.498;2022-10-16T02:51:52;100929.16;;;12.94;92.97
69784;BME280;57054;51.978;4.498;2022-10-16T02:54:18;100924.72;;;12.95;93.04
69784;BME280;57054;51.978;4.498;2022-10-16T02:56:43;100927.44;;;12.93;92.95
69784;BME280;57054;51.978;4.498;2022-10-16T02:59:08;100925.69;;;12.94;93.19
69784;BME280;57054;51.978;4.498;2022-10-16T03:01:34;100931.84;;;12.93;93.18
69784;BME280;57054;51.978;4.498;2022-10-16T03:03:59;100929.22;;;12.93;92.94
69784;BME280;57054;51.978;4.498;2022-10-16T03:06:25;100937.09;;;12.93;93.13
69784;BME280;57054;51.978;4.498;2022-10-16T03:08:50;100943.22;;;12.93;93.25
69784;BME280;57054;51.978;4.498;2022-10-16T03:11:15;100937.09;;;12.93;93.11
69784;BME280;57054;51.978;4.498;2022-10-16T03:13:41;100937.19;;;12.91;92.88
69784;BME280;57054;51.978;4.498;2022-10-16T03:16:06;100942.44;;;12.91;93.19
69784;BME280;57054;51.978;4.498;2022-10-16T03:18:31;100940.69;;;12.92;93.01
69784;BME280;57054;51.978;4.498;2022-10-16T03:20:57;100953.88;;;12.90;93.17
69784;BME280;57054;51.978;4.498;2022-10-16T03:23:22;100948.63;;;12.90;92.86
69784;BME280;57054;51.978;4.498;2022-10-16T03:25:47;100955.56;;;12.91;93.24
69784;BME280;57054;51.978;4.498;2022-10-16T03:28:13;100957.50;;;12.87;93.06
69784;BME280;57054;51.978;4.498;2022-10-16T03:30:38;100961.78;;;12.90;93.39
69784;BME280;57054;51.978;4.498;2022-10-16T03:33:05;100964.41;;;12.90;93.08
69784;BME280;57054;51.978;4.498;2022-10-16T03:35:30;100964.41;;;12.90;93.47
69784;BME280;57054;51.978;4.498;2022-10-16T03:37:55;100966.16;;;12.90;93.46
69784;BME280;57054;51.978;4.498;2022-10-16T03:40:21;100960.84;;;12.91;93.28
69784;BME280;57054;51.978;4.498;2022-10-16T03:42:46;100967.03;;;12.90;93.11
69784;BME280;57054;51.978;4.498;2022-10-16T03:45:12;100966.16;;;12.90;93.31
69784;BME280;57054;51.978;4.498;2022-10-16T03:47:37;100971.41;;;12.90;93.15
69784;BME280;57054;51.978;4.498;2022-10-16T03:50:04;100971.53;;;12.88;93.21
69784;BME280;57054;51.978;4.498;2022-10-16T03:52:29;100975.00;;;12.89;93.29
69784;BME280;57054;51.978;4.498;2022-10-16T03:54:55;100988.13;;;12.89;93.15
69784;BME280;57054;51.978;4.498;2022-10-16T03:57:20;100989.91;;;12.88;93.33
69784;BME280;57054;51.978;4.498;2022-10-16T03:59:46;100982.94;;;12.87;93.16
69784;BME280;57054;51.978;4.498;2022-10-16T04:02:12;100995.16;;;12.88;93.20
69784;BME280;57054;51.978;4.498;2022-10-16T04:04:38;101000.31;;;12.90;93.11
69784;BME280;57054;51.978;4.498;2022-10-16T04:07:03;100993.38;;;12.89;93.21
69784;BME280;57054;51.978;4.498;2022-10-16T04:09:29;100992.53;;;12.88;93.23
69784;BME280;57054;51.978;4.498;2022-10-16T04:11:54;100995.25;;;12.86;92.98
69784;BME280;57054;51.978;4.498;2022-10-16T04:14:20;100994.38;;;12.86;93.34
69784;BME280;57054;51.978;4.498;2022-10-16T04:16:45;100997.88;;;12.86;93.07
69784;BME280;57054;51.978;4.498;2022-10-16T04:19:11;100995.25;;;12.86;93.40
69784;BME280;57054;51.978;4.498;2022-10-16T04:21:36;100995.25;;;12.86;93.42
69784;BME280;57054;51.978;4.498;2022-10-16T04:24:02;101008.38;;;12.86;93.29
69784;BME280;57054;51.978;4.498;2022-10-16T04:26:28;101018.03;;;12.86;93.68
69784;BME280;57054;51.978;4.498;2022-10-16T04:28:54;101015.41;;;12.86;93.07
69784;BME280;57054;51.978;4.498;2022-10-16T04:31:20;101025.06;;;12.85;93.32
69784;BME280;57054;51.978;4.498;2022-10-16T04:33:46;101021.53;;;12.86;93.45
69784;BME280;57054;51.978;4.498;2022-10-16T04:36:11;101025.91;;;12.86;93.45
69784;BME280;57054;51.978;4.498;2022-10-16T04:38:37;101018.97;;;12.85;93.90
69784;BME280;57054;51.978;4.498;2022-10-16T04:41:03;101032.94;;;12.85;93.79
69784;BME280;57054;51.978;4.498;2022-10-16T04:43:29;101042.63;;;12.85;93.88
69784;BME280;57054;51.978;4.498;2022-10-16T04:45:54;101045.25;;;12.85;93.88
69784;BME280;57054;51.978;4.498;2022-10-16T04:48:20;101047.88;;;12.85;93.89
69784;BME280;57054;51.978;4.498;2022-10-16T04:50:45;101050.50;;;12.85;94.03
69784;BME280;57054;51.978;4.498;2022-10-16T04:53:11;101053.97;;;12.85;93.69
69784;BME280;57054;51.978;4.498;2022-10-16T04:55:36;101054.91;;;12.84;94.12
69784;BME280;57054;51.978;4.498;2022-10-16T04:58:03;101063.66;;;12.85;93.90
69784;BME280;57054;51.978;4.498;2022-10-16T05:00:29;101068.91;;;12.85;94.11
69784;BME280;57054;51.978;4.498;2022-10-16T05:02:54;101066.28;;;12.85;94.02
69784;BME280;57054;51.978;4.498;2022-10-16T05:05:20;101071.53;;;12.85;93.77
69784;BME280;57054;51.978;4.498;2022-10-16T05:07:46;101072.44;;;12.84;94.15
69784;BME280;57054;51.978;4.498;2022-10-16T05:10:12;101068.97;;;12.83;93.92
69784;BME280;57054;51.978;4.498;2022-10-16T05:12:37;101076.78;;;12.85;93.78
69784;BME280;57054;51.978;4.498;2022-10-16T05:15:02;101081.19;;;12.84;93.80
69784;BME280;57054;51.978;4.498;2022-10-16T05:17:28;101078.56;;;12.84;93.60
69784;BME280;57054;51.978;4.498;2022-10-16T05:19:53;101089.94;;;12.85;93.52
69784;BME280;57054;51.978;4.498;2022-10-16T05:22:19;101098.66;;;12.85;93.63
69784;BME280;57054;51.978;4.498;2022-10-16T05:24:44;101096.03;;;12.85;94.03
69784;BME280;57054;51.978;4.498;2022-10-16T05:27:10;101094.25;;;12.86;94.36
69784;BME280;57054;51.978;4.498;2022-10-16T05:29:36;101102.22;;;12.84;94.13
69784;BME280;57054;51.978;4.498;2022-10-16T05:32:02;101109.22;;;12.84;94.00
69784;BME280;57054;51.978;4.498;2022-10-16T05:34:28;101109.22;;;12.84;93.74
69784;BME280;57054;51.978;4.498;2022-10-16T05:36:53;101116.22;;;12.85;93.89
69784;BME280;57054;51.978;4.498;2022-10-16T05:39:18;101111.03;;;12.83;93.84
69784;BME280;57054;51.978;4.498;2022-10-16T05:41:44;101105.69;;;12.85;93.47
69784;BME280;57054;51.978;4.498;2022-10-16T05:44:09;101113.59;;;12.85;93.53
69784;BME280;57054;51.978;4.498;2022-10-16T05:46:35;101116.22;;;12.85;93.65
69784;BME280;57054;51.978;4.498;2022-10-16T05:49:00;101117.06;;;12.85;93.79
69784;BME280;57054;51.978;4.498;2022-10-16T05:51:25;101117.13;;;12.84;93.99
69784;BME280;57054;51.978;4.498;2022-10-16T05:53:51;101120.63;;;12.84;94.00
69784;BME280;57054;51.978;4.498;2022-10-16T05:56:17;101120.63;;;12.84;93.99
69784;BME280;57054;51.978;4.498;2022-10-16T05:58:43;101131.13;;;12.84;93.69
69784;BME280;57054;51.978;4.498;2022-10-16T06:01:15;101118.00;;;12.84;93.78
69784;BME280;57054;51.978;4.498;2022-10-16T06:03:41;101120.69;;;12.83;93.50
69784;BME280;57054;51.978;4.498;2022-10-16T06:06:14;101127.63;;;12.84;93.62
69784;BME280;57054;51.978;4.498;2022-10-16T06:08:41;101137.31;;;12.83;93.75
69784;BME280;57054;51.978;4.498;2022-10-16T06:11:09;101137.38;;;12.82;93.78
69784;BME280;57054;51.978;4.498;2022-10-16T06:13:35;101133.84;;;12.83;93.91
69784;BME280;57054;51.978;4.498;2022-10-16T06:16:01;101132.91;;;12.84;93.84
69784;BME280;57054;51.978;4.498;2022-10-16T06:18:27;101138.25;;;12.82;94.26
69784;BME280;57054;51.978;4.498;2022-10-16T06:20:54;101148.66;;;12.84;93.81
69784;BME280;57054;51.978;4.498;2022-10-16T06:23:19;101151.38;;;12.82;93.75
69784;BME280;57054;51.978;4.498;2022-10-16T06:25:45;101158.41;;;12.82;93.96
69784;BME280;57054;51.978;4.498;2022-10-16T06:28:10;101159.28;;;12.82;93.83
69784;BME280;57054;51.978;4.498;2022-10-16T06:30:35;101150.50;;;12.82;93.78
69784;BME280;57054;51.978;4.498;2022-10-16T06:33:01;101147.03;;;12.81;93.49
69784;BME280;57054;51.978;4.498;2022-10-16T06:35:26;101154.94;;;12.81;93.50
69784;BME280;57054;51.978;4.498;2022-10-16T06:37:55;101153.13;;;12.82;93.33
69784;BME280;57054;51.978;4.498;2022-10-16T06:40:20;101152.28;;;12.81;93.61
69784;BME280;57054;51.978;4.498;2022-10-16T06:42:45;101170.69;;;12.81;93.26
69784;BME280;57054;51.978;4.498;2022-10-16T06:45:11;101170.69;;;12.81;93.38
69784;BME280;57054;51.978;4.498;2022-10-16T06:47:37;101173.31;;;12.81;93.57
69784;BME280;57054;51.978;4.498;2022-10-16T06:50:03;101180.38;;;12.81;93.54
69784;BME280;57054;51.978;4.498;2022-10-16T06:52:29;101178.66;;;12.80;93.72
69784;BME280;57054;51.978;4.498;2022-10-16T06:54:54;101177.72;;;12.81;93.46
69784;BME280;57054;51.978;4.498;2022-10-16T06:57:20;101191.72;;;12.81;93.83
69784;BME280;57054;51.978;4.498;2022-10-16T06:59:45;101190.88;;;12.81;93.66
69784;BME280;57054;51.978;4.498;2022-10-16T07:02:10;101204.00;;;12.81;93.70
69784;BME280;57054;51.978;4.498;2022-10-16T07:04:36;101198.03;;;12.77;93.86
69784;BME280;57054;51.978;4.498;2022-10-16T07:07:02;101209.34;;;12.79;93.79
69784;BME280;57054;51.978;4.498;2022-10-16T07:09:27;101218.13;;;12.78;93.83
69784;BME280;57054;51.978;4.498;2022-10-16T07:11:53;101224.25;;;12.79;93.67
69784;BME280;57054;51.978;4.498;2022-10-16T07:14:20;101227.78;;;12.78;93.33
69784;BME280;57054;51.978;4.498;2022-10-16T07:16:46;101228.63;;;12.78;93.83
69784;BME280;57054;51.978;4.498;2022-10-16T07:19:12;101242.72;;;12.77;93.68
69784;BME280;57054;51.978;4.498;2022-10-16T07:21:40;101246.19;;;12.78;93.92
69784;BME280;57054;51.978;4.498;2022-10-16T07:24:10;101248.75;;;12.79;94.03
69784;BME280;57054;51.978;4.498;2022-10-16T07:26:37;101251.38;;;12.79;93.94
69784;BME280;57054;51.978;4.498;2022-10-16T07:29:05;101256.66;;;12.79;93.83
69784;BME280;57054;51.978;4.498;2022-10-16T07:31:31;101262.75;;;12.80;93.85
69784;BME280;57054;51.978;4.498;2022-10-16T07:33:58;101270.63;;;12.80;93.93
69784;BME280;57054;51.978;4.498;2022-10-16T07:36:24;101275.88;;;12.80;94.21
69784;BME280;57054;51.978;4.498;2022-10-16T07:38:49;101280.25;;;12.81;94.22
69784;BME280;57054;51.978;4.498;2022-10-16T07:41:17;101282.00;;;12.80;94.36
69784;BME280;57054;51.978;4.498;2022-10-16T07:43:51;101285.50;;;12.81;94.51
69784;BME280;57054;51.978;4.498;2022-10-16T07:46:17;101290.75;;;12.81;94.26
69784;BME280;57054;51.978;4.498;2022-10-16T07:48:43;101290.75;;;12.81;94.67
69784;BME280;57054;51.978;4.498;2022-10-16T07:51:17;101295.13;;;12.80;94.42
69784;BME280;57054;51.978;4.498;2022-10-16T07:53:43;101294.22;;;12.81;94.64
69784;BME280;57054;51.978;4.498;2022-10-16T07:56:09;101300.31;;;12.82;94.63
69784;BME280;57054;51.978;4.498;2022-10-16T07:58:34;101297.69;;;12.82;94.36
69784;BME280;57054;51.978;4.498;2022-10-16T08:01:10;101309.16;;;12.81;94.42
69784;BME280;57054;51.978;4.498;2022-10-16T08:03:36;101312.63;;;12.81;94.38
69784;BME280;57054;51.978;4.498;2022-10-16T08:06:02;101323.06;;;12.83;94.33
69784;BME280;57054;51.978;4.498;2022-10-16T08:08:28;101332.75;;;12.82;94.49
69784;BME280;57054;51.978;4.498;2022-10-16T08:10:54;101331.88;;;12.82;94.11
69784;BME280;57054;51.978;4.498;2022-10-16T08:13:20;101337.13;;;12.82;93.99
69784;BME280;57054;51.978;4.498;2022-10-16T08:15:46;101337.06;;;12.83;94.23
69784;BME280;57054;51.978;4.498;2022-10-16T08:18:13;101346.72;;;12.83;93.48
69784;BME280;57054;51.978;4.498;2022-10-16T08:20:40;101344.94;;;12.83;94.03
69784;BME280;57054;51.978;4.498;2022-10-16T08:23:06;101347.56;;;12.83;93.89
69784;BME280;57054;51.978;4.498;2022-10-16T08:25:34;101365.91;;;12.85;94.14
69784;BME280;57054;51.978;4.498;2022-10-16T08:28:03;101358.88;;;12.85;93.85
69784;BME280;57054;51.978;4.498;2022-10-16T08:30:28;101358.88;;;12.85;93.83
69784;BME280;57054;51.978;4.498;2022-10-16T08:32:54;101359.72;;;12.86;93.84
69784;BME280;57054;51.978;4.498;2022-10-16T08:35:19;101372.81;;;12.87;94.71
69784;BME280;57054;51.978;4.498;2022-10-16T08:37:44;101370.19;;;12.87;94.57
69784;BME280;57054;51.978;4.498;2022-10-16T08:40:19;101383.31;;;12.87;94.53
69784;BME280;57054;51.978;4.498;2022-10-16T08:46:07;101390.25;;;12.90;94.38
69784;BME280;57054;51.978;4.498;2022-10-16T08:48:47;101386.69;;;12.91;94.41
69784;BME280;57054;51.978;4.498;2022-10-16T08:51:23;101395.44;;;12.92;94.59
69784;BME280;57054;51.978;4.498;2022-10-16T08:54:02;101394.50;;;12.93;94.57
69784;BME280;57054;51.978;4.498;2022-10-16T08:56:28;101404.97;;;12.94;94.30
69784;BME280;57054;51.978;4.498;2022-10-16T08:58:54;101394.44;;;12.94;94.56
69784;BME280;57054;51.978;4.498;2022-10-16T09:01:22;101400.50;;;12.96;94.42
69784;BME280;57054;51.978;4.498;2022-10-16T09:04:05;101411.78;;;12.98;94.74
69784;BME280;57054;51.978;4.498;2022-10-16T09:09:27;101415.22;;;13.00;94.78
69784;BME280;57054;51.978;4.498;2022-10-16T09:12:21;101421.28;;;13.02;95.13
69784;BME280;57054;51.978;4.498;2022-10-16T09:14:51;101424.72;;;13.04;94.60
69784;BME280;57054;51.978;4.498;2022-10-16T09:23:10;101423.66;;;13.09;94.60
69784;BME280;57054;51.978;4.498;2022-10-16T09:25:39;101425.28;;;13.11;94.95
69784;BME280;57054;51.978;4.498;2022-10-16T09:28:07;101427.00;;;13.12;95.06
69784;BME280;57054;51.978;4.498;2022-10-16T09:30:32;101433.06;;;13.14;95.09
69784;BME280;57054;51.978;4.498;2022-10-16T09:32:58;101439.03;;;13.18;95.21
69784;BME280;57054;51.978;4.498;2022-10-16T09:35:44;101435.56;;;13.17;94.87
69784;BME280;57054;51.978;4.498;2022-10-16T09:38:28;101436.34;;;13.19;94.17
69784;BME280;57054;51.978;4.498;2022-10-16T09:40:56;101437.13;;;13.21;94.51
69784;BME280;57054;51.978;4.498;2022-10-16T09:43:23;101438.78;;;13.24;94.34
69784;BME280;57054;51.978;4.498;2022-10-16T09:46:05;101440.44;;;13.27;94.56
69784;BME280;57054;51.978;4.498;2022-10-16T09:51:03;101439.50;;;13.28;94.29
69784;BME280;57054;51.978;4.498;2022-10-16T09:53:53;101447.31;;;13.31;94.94
69784;BME280;57054;51.978;4.498;2022-10-16T09:56:25;101450.72;;;13.33;94.72
69784;BME280;57054;51.978;4.498;2022-10-16T09:58:57;101452.44;;;13.34;94.24
69784;BME280;57054;51.978;4.498;2022-10-16T10:01:29;101441.84;;;13.35;93.76
69784;BME280;57054;51.978;4.498;2022-10-16T10:03:57;101454.06;;;13.36;93.62
69784;BME280;57054;51.978;4.498;2022-10-16T10:06:31;101450.47;;;13.39;93.22
69784;BME280;57054;51.978;4.498;2022-10-16T10:11:44;101452.84;;;13.45;93.64
69784;BME280;57054;51.978;4.498;2022-10-16T10:14:20;101455.34;;;13.48;93.81
69784;BME280;57054;51.978;4.498;2022-10-16T10:16:46;101463.03;;;13.53;94.15
69784;BME280;57054;51.978;4.498;2022-10-16T10:19:20;101470.78;;;13.56;93.49
69784;BME280;57054;51.978;4.498;2022-10-16T10:21:47;101479.47;;;13.58;92.92
69784;BME280;57054;51.978;4.498;2022-10-16T10:24:14;101472.41;;;13.58;91.70
69784;BME280;57054;51.978;4.498;2022-10-16T10:27:14;101470.66;;;13.59;91.73
69784;BME280;57054;51.978;4.498;2022-10-16T10:29:57;101475.84;;;13.60;91.70
69784;BME280;57054;51.978;4.498;2022-10-16T10:32:43;101479.34;;;13.61;91.48
69784;BME280;57054;51.978;4.498;2022-10-16T10:38:16;101496.00;;;13.61;91.59
69784;BME280;57054;51.978;4.498;2022-10-16T10:43:48;101492.50;;;13.61;91.34
69784;BME280;57054;51.978;4.498;2022-10-16T10:46:39;101488.09;;;13.61;90.37
69784;BME280;57054;51.978;4.498;2022-10-16T10:54:27;101496.72;;;13.65;90.01
69784;BME280;57054;51.978;4.498;2022-10-16T10:57:20;101501.91;;;13.67;90.51
69784;BME280;57054;51.978;4.498;2022-10-16T11:09:51;101520.59;;;13.81;89.72
69784;BME280;57054;51.978;4.498;2022-10-16T11:12:21;101523.06;;;13.84;90.15
69784;BME280;57054;51.978;4.498;2022-10-16T11:15:02;101519.41;;;13.88;89.91
69784;BME280;57054;51.978;4.498;2022-10-16T11:17:38;101521.94;;;13.90;89.76
69784;BME280;57054;51.978;4.498;2022-10-16T11:20:17;101521.81;;;13.93;90.06
69784;BME280;57054;51.978;4.498;2022-10-16T11:23:08;101527.88;;;13.95;89.58
69784;BME280;57054;51.978;4.498;2022-10-16T11:25:39;101533.88;;;13.98;89.56
69784;BME280;57054;51.978;4.498;2022-10-16T11:30:46;101538.88;;;14.05;88.32
69784;BME280;57054;51.978;4.498;2022-10-16T11:36:00;101543.94;;;14.09;85.88
69784;BME280;57054;51.978;4.498;2022-10-16T11:38:30;101543.88;;;14.11;85.95
69784;BME280;57054;51.978;4.498;2022-10-16T11:41:10;101542.88;;;14.13;86.83
69784;BME280;57054;51.978;4.498;2022-10-16T11:43:42;101540.16;;;14.15;85.96
69784;BME280;57054;51.978;4.498;2022-10-16T11:46:12;101541.91;;;14.16;86.78
69784;BME280;57054;51.978;4.498;2022-10-16T11:48:48;101547.16;;;14.16;84.68
69784;BME280;57054;51.978;4.498;2022-10-16T11:51:42;101558.41;;;14.19;87.00
69784;BME280;57054;51.978;4.498;2022-10-16T11:56:44;101555.72;;;14.21;87.51
69784;BME280;57054;51.978;4.498;2022-10-16T12:02:25;101565.38;;;14.20;86.16
69784;BME280;57054;51.978;4.498;2022-10-16T12:05:05;101565.38;;;14.20;85.60
69784;BME280;57054;51.978;4.498;2022-10-16T12:07:39;101567.09;;;14.21;85.41
69784;BME280;57054;51.978;4.498;2022-10-16T12:10:25;101565.31;;;14.22;84.99
69784;BME280;57054;51.978;4.498;2022-10-16T12:12:50;101567.94;;;14.22;86.94
69784;BME280;57054;51.978;4.498;2022-10-16T12:15:28;101562.63;;;14.24;86.01
69784;BME280;57054;51.978;4.498;2022-10-16T12:17:55;101567.81;;;14.25;87.52
69784;BME280;57054;51.978;4.498;2022-10-16T12:20:21;101571.47;;;14.23;83.79
69784;BME280;57054;51.978;4.498;2022-10-16T12:23:19;101573.22;;;14.22;82.59
69784;BME280;57054;51.978;4.498;2022-10-16T12:25:57;101578.38;;;14.25;84.02
69784;BME280;57054;51.978;4.498;2022-10-16T12:28:28;101581.78;;;14.27;82.64
69784;BME280;57054;51.978;4.498;2022-10-16T12:31:05;101579.03;;;14.30;83.71
69784;BME280;57054;51.978;4.498;2022-10-16T12:33:36;101580.72;;;14.31;82.80
69784;BME280;57054;51.978;4.498;2022-10-16T12:36:09;101579.81;;;14.32;83.11
69784;BME280;57054;51.978;4.498;2022-10-16T12:38:46;101585.84;;;14.34;83.16
69784;BME280;57054;51.978;4.498;2022-10-16T12:41:12;101579.69;;;14.35;82.40
69784;BME280;57054;51.978;4.498;2022-10-16T12:43:47;101577.75;;;14.39;83.91
69784;BME280;57054;51.978;4.498;2022-10-16T12:48:40;101576.69;;;14.43;86.71
69784;BME280;57054;51.978;4.498;2022-10-16T12:56:41;101583.59;;;14.46;83.20
69784;BME280;57054;51.978;4.498;2022-10-16T12:59:33;101579.03;;;14.49;85.20
69784;BME280;57054;51.978;4.498;2022-10-16T13:02:24;101574.72;;;14.48;82.78
69784;BME280;57054;51.978;4.498;2022-10-16T13:05:04;101591.44;;;14.47;82.09
69784;BME280;57054;51.978;4.498;2022-10-16T13:16:29;101601.84;;;14.50;83.32
69784;BME280;57054;51.978;4.498;2022-10-16T13:19:29;101603.41;;;14.54;84.46
69784;BME280;57054;51.978;4.498;2022-10-16T13:29:41;101604.19;;;14.56;81.73
69784;BME280;57054;51.978;4.498;2022-10-16T13:32:10;101604.16;;;14.58;83.31
69784;BME280;57054;51.978;4.498;2022-10-16T13:34:45;101597.97;;;14.59;84.38
69784;BME280;57054;51.978;4.498;2022-10-16T13:37:18;101606.78;;;14.58;81.65
69784;BME280;57054;51.978;4.498;2022-10-16T13:39:44;101611.94;;;14.61;82.78
69784;BME280;57054;51.978;4.498;2022-10-16T13:42:13;101615.41;;;14.62;84.02
69784;BME280;57054;51.978;4.498;2022-10-16T13:44:43;101613.69;;;14.61;82.46
69784;BME280;57054;51.978;4.498;2022-10-16T13:47:24;101616.19;;;14.64;84.06
69784;BME280;57054;51.978;4.498;2022-10-16T13:50:19;101608.22;;;14.65;82.98
69784;BME280;57054;51.978;4.498;2022-10-16T13:52:44;101617.88;;;14.66;82.77
69784;BME280;57054;51.978;4.498;2022-10-16T13:55:15;101608.16;;;14.67;83.87
69784;BME280;57054;51.978;4.498;2022-10-16T13:57:41;101607.22;;;14.68;85.11
69784;BME280;57054;51.978;4.498;2022-10-16T14:00:21;101605.41;;;14.70;85.87
69784;BME280;57054;51.978;4.498;2022-10-16T14:02:52;101607.16;;;14.69;85.89
69784;BME280;57054;51.978;4.498;2022-10-16T14:05:20;101603.66;;;14.69;85.56
69784;BME280;57054;51.978;4.498;2022-10-16T14:07:49;101603.53;;;14.72;85.29
69784;BME280;57054;51.978;4.498;2022-10-16T14:10:25;101601.75;;;14.72;85.09
69784;BME280;57054;51.978;4.498;2022-10-16T14:13:04;101606.06;;;14.73;85.33
69784;BME280;57054;51.978;4.498;2022-10-16T14:15:32;101595.53;;;14.73;85.77
69784;BME280;57054;51.978;4.498;2022-10-16T14:17:59;101607.81;;;14.74;85.80
69784;BME280;57054;51.978;4.498;2022-10-16T14:20:27;101606.78;;;14.77;85.67
69784;BME280;57054;51.978;4.498;2022-10-16T14:23:16;101603.31;;;14.76;85.46
69784;BME280;57054;51.978;4.498;2022-10-16T14:25:45;101598.97;;;14.75;85.02
69784;BME280;57054;51.978;4.498;2022-10-16T14:30:56;101612.00;;;14.78;85.44
69784;BME280;57054;51.978;4.498;2022-10-16T14:33:24;101607.59;;;14.79;86.29
69784;BME280;57054;51.978;4.498;2022-10-16T14:36:14;101599.69;;;14.79;85.53